Time;durP1;ratioP1;P1;durP2;ratioP2;P2;SDS_P1;SDS_P2;PMS_P1;PMS_P2;Temp;Humidity;BMP_temperature;BMP_pressure;BME280_temperature;BME280_humidity;BME280_pressure;Samples;Min_cycle;Max_cycle;Signal;HPM_P1;HPM_P2
2021/08/23 00:00:34;;;;;;;5.27;1.67;;;13.80;99.90;;;;;;5072643;28;20181;-86
2021/08/23 00:02:59;;;;;;;2.90;1.63;;;13.80;99.90;;;;;;5065483;28;20189;-86
2021/08/23 00:05:25;;;;;;;1.70;1.60;;;13.80;99.90;;;;;;5070030;28;20660;-86
2021/08/23 00:07:51;;;;;;;3.73;1.63;;;13.80;99.90;;;;;;5057134;28;20197;-86
2021/08/23 00:10:16;;;;;;;2.10;1.60;;;13.80;99.90;;;;;;5074529;28;20181;-86
2021/08/23 00:12:42;;;;;;;2.10;1.63;;;13.80;99.90;;;;;;5067103;28;20197;-87
2021/08/23 00:15:09;;;;;;;2.20;1.50;;;13.80;99.90;;;;;;5055444;28;20208;-86
2021/08/23 00:17:35;;;;;;;2.43;1.87;;;13.80;99.90;;;;;;5055969;28;20247;-86
2021/08/23 00:20:03;;;;;;;5.87;1.80;;;13.80;99.90;;;;;;5064258;28;20211;-86
2021/08/23 00:22:31;;;;;;;2.83;1.87;;;13.80;99.90;;;;;;5074607;28;21726;-86
2021/08/23 00:24:59;;;;;;;4.40;1.70;;;13.90;99.90;;;;;;5074505;28;20188;-86
2021/08/23 00:27:29;;;;;;;2.10;1.90;;;13.80;99.90;;;;;;5074310;28;20286;-86
2021/08/23 00:29:55;;;;;;;2.47;1.70;;;13.80;99.90;;;;;;5070803;28;20177;-86
2021/08/23 00:32:21;;;;;;;3.73;1.80;;;13.80;99.90;;;;;;5063204;28;20177;-86
2021/08/23 00:34:46;;;;;;;2.60;1.63;;;13.70;99.90;;;;;;5073854;28;20622;-86
2021/08/23 00:37:14;;;;;;;4.00;1.97;;;13.70;99.90;;;;;;5060795;28;20197;-86
2021/08/23 00:39:40;;;;;;;2.13;1.77;;;13.70;99.90;;;;;;5091644;28;20188;-86
2021/08/23 00:42:06;;;;;;;2.47;1.90;;;13.60;99.90;;;;;;5075804;28;20191;-86
2021/08/23 00:44:32;;;;;;;2.83;2.13;;;13.60;99.90;;;;;;5070068;28;20177;-86
2021/08/23 00:46:59;;;;;;;2.30;1.90;;;13.60;99.90;;;;;;5055471;28;20193;-86
2021/08/23 00:49:25;;;;;;;2.43;2.00;;;13.60;99.90;;;;;;5065331;28;20266;-86
2021/08/23 00:51:55;;;;;;;4.47;2.20;;;13.60;99.90;;;;;;5060829;28;20182;-86
2021/08/23 00:54:20;;;;;;;2.33;1.77;;;13.60;99.90;;;;;;5055643;28;20207;-86
2021/08/23 00:56:47;;;;;;;4.17;2.10;;;13.60;99.90;;;;;;5067321;28;20291;-86
2021/08/23 00:59:13;;;;;;;3.10;1.90;;;13.60;99.90;;;;;;5083602;28;20539;-86
2021/08/23 01:01:53;;;;;;;3.17;1.77;;;13.60;99.90;;;;;;5075151;28;20173;-86
2021/08/23 01:04:26;;;;;;;2.47;1.53;;;13.60;99.90;;;;;;5058377;28;20631;-86
2021/08/23 01:06:52;;;;;;;3.40;1.80;;;13.60;99.90;;;;;;5054008;28;20586;-86
2021/08/23 01:09:19;;;;;;;2.53;1.70;;;13.70;99.90;;;;;;5064323;28;20179;-86
2021/08/23 01:11:51;;;;;;;3.17;1.83;;;13.60;99.90;;;;;;5055694;28;20272;-86
2021/08/23 01:14:19;;;;;;;3.77;1.80;;;13.60;99.90;;;;;;5060501;28;20252;-86
2021/08/23 01:16:46;;;;;;;3.87;1.80;;;13.60;99.90;;;;;;5065569;28;20544;-86
2021/08/23 01:19:12;;;;;;;2.30;1.73;;;13.60;99.90;;;;;;5067130;28;20711;-86
2021/08/23 01:21:38;;;;;;;3.07;1.97;;;13.50;99.90;;;;;;5075384;28;20184;-86
2021/08/23 01:24:06;;;;;;;3.50;1.90;;;13.50;99.90;;;;;;5062638;28;20185;-85
2021/08/23 01:26:39;;;;;;;2.80;1.80;;;13.50;99.90;;;;;;5062055;28;20541;-86
2021/08/23 01:29:08;;;;;;;3.33;2.10;;;13.40;99.90;;;;;;5066931;28;20181;-86
2021/08/23 01:31:54;;;;;;;2.87;2.13;;;13.40;99.90;;;;;;5056394;28;20254;-85
2021/08/23 01:34:22;;;;;;;3.27;2.37;;;13.40;99.90;;;;;;5064379;28;20201;-86
2021/08/23 01:36:49;;;;;;;2.37;1.87;;;13.40;99.90;;;;;;5055550;28;20232;-86
2021/08/23 01:39:16;;;;;;;2.60;2.00;;;13.40;99.90;;;;;;5057866;28;20193;-86
2021/08/23 01:41:42;;;;;;;3.10;2.07;;;13.30;99.90;;;;;;5076645;28;20180;-86
2021/08/23 01:44:08;;;;;;;6.37;2.10;;;13.30;99.90;;;;;;5067313;28;20230;-86
2021/08/23 01:46:34;;;;;;;2.57;1.60;;;13.40;99.90;;;;;;5065858;28;20189;-86
2021/08/23 01:49:03;;;;;;;2.93;2.10;;;13.40;99.90;;;;;;5073861;28;20207;-86
2021/08/23 01:51:29;;;;;;;3.20;2.00;;;13.40;99.90;;;;;;5062157;28;20181;-86
2021/08/23 01:53:54;;;;;;;2.63;1.67;;;13.40;99.90;;;;;;5065187;28;20606;-86
2021/08/23 01:56:23;;;;;;;5.33;1.90;;;13.40;99.90;;;;;;5065078;28;20176;-86
2021/08/23 01:58:49;;;;;;;2.00;1.80;;;13.40;99.90;;;;;;5066072;28;20169;-86
2021/08/23 02:01:15;;;;;;;3.97;1.93;;;13.40;99.90;;;;;;5063372;28;20378;-86
2021/08/23 02:03:40;;;;;;;2.70;2.10;;;13.40;99.90;;;;;;5059132;28;20230;-86
2021/08/23 02:06:06;;;;;;;2.90;1.97;;;13.40;99.90;;;;;;5073023;28;20177;-86
2021/08/23 02:08:32;;;;;;;4.53;2.33;;;13.40;99.90;;;;;;5062506;28;20198;-86
2021/08/23 02:10:57;;;;;;;3.67;2.30;;;13.40;99.90;;;;;;5056375;28;20197;-86
2021/08/23 02:13:23;;;;;;;4.70;2.23;;;13.40;99.90;;;;;;5056267;28;20721;-86
2021/08/23 02:15:48;;;;;;;5.00;2.40;;;13.40;99.90;;;;;;5070996;28;20506;-86
2021/08/23 02:18:14;;;;;;;4.60;2.30;;;13.40;99.90;;;;;;5072329;28;20663;-86
2021/08/23 02:20:40;;;;;;;4.43;2.10;;;13.40;99.90;;;;;;5068403;28;20180;-86
2021/08/23 02:23:06;;;;;;;3.90;2.40;;;13.40;99.90;;;;;;5073111;28;20185;-86
2021/08/23 02:25:32;;;;;;;3.07;2.47;;;13.40;99.90;;;;;;5058439;28;20208;-86
2021/08/23 02:27:58;;;;;;;4.23;2.60;;;13.40;99.90;;;;;;5057124;28;20538;-86
2021/08/23 02:30:24;;;;;;;2.63;2.00;;;13.40;99.90;;;;;;5074149;28;20181;-86
2021/08/23 02:32:50;;;;;;;4.67;1.90;;;13.40;99.90;;;;;;5067820;28;20211;-86
2021/08/23 02:35:17;;;;;;;2.70;2.00;;;13.40;99.90;;;;;;5076625;28;20181;-86
2021/08/23 02:37:43;;;;;;;2.90;2.30;;;13.40;99.90;;;;;;5059548;28;20239;-86
2021/08/23 02:40:09;;;;;;;3.93;2.00;;;13.40;99.90;;;;;;5059574;28;20193;-86
2021/08/23 02:42:35;;;;;;;6.50;2.40;;;13.40;99.90;;;;;;5070673;28;20250;-86
2021/08/23 02:45:01;;;;;;;2.77;2.17;;;13.40;99.90;;;;;;5067407;28;20507;-86
2021/08/23 02:47:26;;;;;;;3.30;2.20;;;13.40;99.90;;;;;;5067832;28;20200;-86
2021/08/23 02:49:52;;;;;;;4.47;2.40;;;13.40;99.90;;;;;;5078265;28;20516;-86
2021/08/23 02:52:18;;;;;;;3.47;2.27;;;13.40;99.90;;;;;;5074507;28;21728;-87
2021/08/23 02:54:43;;;;;;;3.30;2.40;;;13.40;99.90;;;;;;5092788;28;20704;-86
2021/08/23 02:57:09;;;;;;;3.33;2.23;;;13.40;99.90;;;;;;5076161;28;20219;-86
2021/08/23 02:59:35;;;;;;;3.07;2.40;;;13.40;99.90;;;;;;5060276;28;20179;-85
2021/08/23 03:02:00;;;;;;;3.13;2.40;;;13.40;99.90;;;;;;5069707;28;20169;-86
2021/08/23 03:04:26;;;;;;;2.90;2.37;;;13.40;99.90;;;;;;5072493;28;20173;-86
2021/08/23 03:06:52;;;;;;;4.23;2.10;;;13.40;99.90;;;;;;5060239;28;20184;-86
2021/08/23 03:09:17;;;;;;;2.93;2.33;;;13.40;99.90;;;;;;5068943;28;20177;-86
2021/08/23 03:11:43;;;;;;;2.70;2.20;;;13.40;99.90;;;;;;5066904;28;20638;-85
2021/08/23 03:14:08;;;;;;;4.47;2.20;;;13.40;99.90;;;;;;5062371;28;20243;-86
2021/08/23 03:16:34;;;;;;;4.73;2.13;;;13.40;99.90;;;;;;5065199;28;20177;-86
2021/08/23 03:19:00;;;;;;;3.83;2.27;;;13.40;99.90;;;;;;5059245;28;20239;-86
2021/08/23 03:21:26;;;;;;;2.60;2.20;;;13.40;99.90;;;;;;5059781;28;20649;-86
2021/08/23 03:23:52;;;;;;;2.80;2.13;;;13.40;99.90;;;;;;5068229;28;20658;-86
2021/08/23 03:26:17;;;;;;;2.97;2.20;;;13.40;99.90;;;;;;5062821;28;20234;-86
2021/08/23 03:28:43;;;;;;;5.47;2.83;;;13.50;99.90;;;;;;5057455;28;20284;-85
2021/08/23 03:31:09;;;;;;;3.97;2.23;;;13.50;99.90;;;;;;5078135;28;20535;-86
2021/08/23 03:33:35;;;;;;;3.07;2.20;;;13.50;99.90;;;;;;5071567;28;20243;-86
2021/08/23 03:36:00;;;;;;;5.97;2.50;;;13.50;99.90;;;;;;5080402;28;20169;-86
2021/08/23 03:38:26;;;;;;;5.10;2.30;;;13.50;99.90;;;;;;5070532;28;20612;-86
2021/08/23 03:40:52;;;;;;;2.60;2.30;;;13.50;99.90;;;;;;5068583;28;20172;-86
2021/08/23 03:43:18;;;;;;;4.57;2.53;;;13.50;99.90;;;;;;5072507;28;20593;-86
2021/08/23 03:45:44;;;;;;;2.90;2.57;;;13.50;99.90;;;;;;5064349;28;20173;-86
2021/08/23 03:48:09;;;;;;;3.33;2.20;;;13.40;99.90;;;;;;5069597;28;20193;-86
2021/08/23 03:50:35;;;;;;;3.03;2.00;;;13.50;99.90;;;;;;5062734;28;20558;-86
2021/08/23 03:53:01;;;;;;;2.97;2.27;;;13.40;99.90;;;;;;5066360;28;20254;-87
2021/08/23 03:55:27;;;;;;;5.97;2.33;;;13.40;99.90;;;;;;5078101;28;20173;-87
2021/08/23 03:57:53;;;;;;;4.83;2.50;;;13.40;99.90;;;;;;5075834;28;20196;-86
2021/08/23 04:00:18;;;;;;;3.73;1.90;;;13.50;99.90;;;;;;5068116;28;20169;-86
2021/08/23 04:02:45;;;;;;;2.77;2.20;;;13.50;99.90;;;;;;5058333;28;20232;-85
2021/08/23 04:05:11;;;;;;;5.53;2.17;;;13.50;99.90;;;;;;5069658;28;20187;-87
2021/08/23 04:07:37;;;;;;;4.00;2.17;;;13.50;99.90;;;;;;5076145;28;20204;-87
2021/08/23 04:10:04;;;;;;;4.33;2.60;;;13.50;99.90;;;;;;5069583;28;20169;-87
2021/08/23 04:12:30;;;;;;;4.00;2.47;;;13.50;99.90;;;;;;5067337;28;20263;-87
2021/08/23 04:14:55;;;;;;;3.03;2.10;;;13.50;99.90;;;;;;5073680;28;20205;-87
2021/08/23 04:17:21;;;;;;;2.57;2.10;;;13.50;99.90;;;;;;5080250;28;20541;-85
2021/08/23 04:19:47;;;;;;;5.73;2.63;;;13.50;99.90;;;;;;5067971;28;20704;-86
2021/08/23 04:22:12;;;;;;;3.30;2.47;;;13.40;99.90;;;;;;5066074;28;20647;-87
2021/08/23 04:24:39;;;;;;;3.23;2.17;;;13.40;99.90;;;;;;5054612;28;20184;-86
2021/08/23 04:27:05;;;;;;;2.90;2.40;;;13.40;99.90;;;;;;5077130;28;20716;-87
2021/08/23 04:29:39;;;;;;;3.00;2.23;;;13.30;99.90;;;;;;5074038;28;20181;-87
2021/08/23 04:32:05;;;;;;;3.63;2.33;;;13.30;99.90;;;;;;5065454;28;20233;-87
2021/08/23 04:34:30;;;;;;;3.40;2.30;;;13.20;99.90;;;;;;5060464;28;20570;-87
2021/08/23 04:36:57;;;;;;;3.53;2.40;;;13.20;99.90;;;;;;5054020;28;20197;-87
2021/08/23 04:39:22;;;;;;;3.60;2.60;;;13.20;99.90;;;;;;5055645;28;20182;-85
2021/08/23 04:41:48;;;;;;;3.53;2.23;;;13.20;99.90;;;;;;5064192;28;20256;-86
2021/08/23 04:44:14;;;;;;;3.07;2.70;;;13.20;99.90;;;;;;5059424;28;20184;-86
2021/08/23 04:46:39;;;;;;;4.00;2.30;;;13.20;99.90;;;;;;5068594;28;20181;-86
2021/08/23 04:49:05;;;;;;;3.80;2.40;;;13.20;99.90;;;;;;5081573;28;20181;-86
2021/08/23 04:51:31;;;;;;;3.67;2.63;;;13.20;99.90;;;;;;5082994;28;20256;-86
2021/08/23 04:53:56;;;;;;;3.40;2.60;;;13.20;99.90;;;;;;5081275;28;20208;-86
2021/08/23 04:56:22;;;;;;;3.53;2.50;;;13.10;99.90;;;;;;5078496;28;20181;-86
2021/08/23 04:58:48;;;;;;;6.33;2.60;;;13.10;99.90;;;;;;5076998;28;20181;-86
2021/08/23 05:01:14;;;;;;;3.53;2.47;;;13.10;99.90;;;;;;5079159;28;20235;-86
2021/08/23 05:03:40;;;;;;;3.67;2.60;;;13.10;99.90;;;;;;5076733;28;20200;-86
2021/08/23 05:06:05;;;;;;;4.03;3.00;;;13.20;99.90;;;;;;5075900;28;20187;-86
2021/08/23 05:08:31;;;;;;;2.90;2.50;;;13.20;99.90;;;;;;5060885;28;20205;-85
2021/08/23 05:10:57;;;;;;;6.13;2.53;;;13.20;99.90;;;;;;5066701;28;20596;-87
2021/08/23 05:13:23;;;;;;;4.07;2.57;;;13.20;99.90;;;;;;5057541;28;20233;-87
2021/08/23 05:15:49;;;;;;;3.47;2.60;;;13.30;99.90;;;;;;5074994;28;20218;-87
2021/08/23 05:18:15;;;;;;;2.90;2.60;;;13.30;99.90;;;;;;5065363;28;20255;-87
2021/08/23 05:20:40;;;;;;;3.93;2.60;;;13.30;99.90;;;;;;5054998;28;20542;-87
2021/08/23 05:23:06;;;;;;;4.03;3.00;;;13.30;99.90;;;;;;5054588;28;20185;-86
2021/08/23 05:25:34;;;;;;;3.50;2.77;;;13.30;99.90;;;;;;5064495;28;20188;-86
2021/08/23 05:28:01;;;;;;;6.60;2.73;;;13.30;99.90;;;;;;5070513;28;20284;-87
2021/08/23 05:30:27;;;;;;;4.70;2.60;;;13.30;99.90;;;;;;5061170;28;20169;-88
2021/08/23 05:32:52;;;;;;;4.33;2.70;;;13.40;99.90;;;;;;5069377;28;20211;-88
2021/08/23 05:35:18;;;;;;;5.23;3.33;;;13.40;99.90;;;;;;5062905;28;20183;-86
2021/08/23 05:37:44;;;;;;;5.17;2.90;;;13.50;99.90;;;;;;5057317;28;20243;-86
2021/08/23 05:40:10;;;;;;;3.63;2.40;;;13.60;99.90;;;;;;5077311;28;20185;-86
2021/08/23 05:42:36;;;;;;;3.90;2.70;;;13.70;99.90;;;;;;5063934;28;20259;-86
2021/08/23 05:45:02;;;;;;;5.47;2.90;;;13.70;99.90;;;;;;5058548;28;20170;-86
2021/08/23 05:47:28;;;;;;;3.43;2.60;;;13.80;99.90;;;;;;5062918;28;20184;-87
2021/08/23 05:49:53;;;;;;;7.13;2.40;;;13.80;99.90;;;;;;5069110;28;20220;-86
2021/08/23 05:52:19;;;;;;;4.23;2.57;;;13.90;99.90;;;;;;5079401;28;20651;-85
2021/08/23 05:54:46;;;;;;;3.17;2.60;;;13.90;99.90;;;;;;5078490;28;20662;-85
2021/08/23 05:57:12;;;;;;;2.27;2.07;;;13.90;99.90;;;;;;5061065;28;20189;-87
2021/08/23 05:59:38;;;;;;;3.53;2.27;;;13.90;99.90;;;;;;5064565;28;20165;-86
2021/08/23 06:02:04;;;;;;;4.63;2.20;;;13.90;99.90;;;;;;5081387;28;20230;-84
2021/08/23 06:04:29;;;;;;;4.80;2.37;;;13.90;99.90;;;;;;5083975;28;20177;-83
2021/08/23 06:06:55;;;;;;;4.40;2.70;;;13.90;99.90;;;;;;5077060;28;20201;-88
2021/08/23 06:09:21;;;;;;;4.57;2.90;;;14.00;99.90;;;;;;5061779;28;20176;-87
2021/08/23 06:11:47;;;;;;;4.10;3.10;;;14.00;99.90;;;;;;5077836;28;20181;-87
2021/08/23 06:14:13;;;;;;;4.23;2.50;;;14.00;99.90;;;;;;5065629;28;20212;-86
2021/08/23 06:16:38;;;;;;;5.63;2.43;;;14.10;99.90;;;;;;5079616;28;20180;-86
2021/08/23 06:19:04;;;;;;;4.17;2.50;;;14.10;99.90;;;;;;5072842;28;20267;-85
2021/08/23 06:21:31;;;;;;;3.73;2.40;;;14.20;99.90;;;;;;5078848;28;20566;-86
2021/08/23 06:23:56;;;;;;;4.93;2.87;;;14.30;99.90;;;;;;5078365;28;20264;-86
2021/08/23 06:26:22;;;;;;;4.83;2.50;;;14.30;99.90;;;;;;5077595;28;20205;-86
2021/08/23 06:28:48;;;;;;;7.67;2.87;;;14.40;99.90;;;;;;5078479;28;20263;-86
2021/08/23 06:31:13;;;;;;;4.70;2.50;;;14.40;99.90;;;;;;5066342;28;20582;-87
2021/08/23 06:33:39;;;;;;;4.53;2.97;;;14.50;99.90;;;;;;5067919;28;20230;-92
2021/08/23 06:36:05;;;;;;;5.33;2.80;;;14.50;99.90;;;;;;5076961;28;20169;-91
2021/08/23 06:38:31;;;;;;;4.37;3.00;;;14.60;99.90;;;;;;5073314;28;20197;-87
2021/08/23 06:40:56;;;;;;;4.97;3.00;;;14.60;99.90;;;;;;5070667;28;20177;-86
2021/08/23 06:43:22;;;;;;;4.73;2.60;;;14.70;99.90;;;;;;5070379;28;20176;-86
2021/08/23 06:45:48;;;;;;;4.83;2.93;;;14.70;99.90;;;;;;5079150;28;20535;-86
2021/08/23 06:48:13;;;;;;;5.57;3.03;;;14.80;99.90;;;;;;5067565;28;20201;-87
2021/08/23 06:50:39;;;;;;;4.97;2.90;;;14.90;99.90;;;;;;5077363;28;20188;-85
2021/08/23 06:53:05;;;;;;;4.77;2.80;;;15.00;99.90;;;;;;5077145;28;20666;-85
2021/08/23 06:55:31;;;;;;;4.40;2.53;;;15.00;99.90;;;;;;5074656;28;20234;-85
2021/08/23 06:57:57;;;;;;;4.67;2.80;;;15.10;99.90;;;;;;5071641;28;20194;-86
2021/08/23 07:00:22;;;;;;;4.00;2.50;;;15.10;99.90;;;;;;5070896;28;20254;-86
2021/08/23 07:02:48;;;;;;;4.10;2.50;;;15.10;99.90;;;;;;5078384;28;20181;-86
2021/08/23 07:05:14;;;;;;;4.40;2.67;;;15.10;99.90;;;;;;5080182;28;20235;-86
2021/08/23 07:07:40;;;;;;;2.63;2.00;;;15.10;99.90;;;;;;5070202;28;20201;-85
2021/08/23 07:10:09;;;;;;;3.97;2.40;;;15.10;99.90;;;;;;5058305;28;20185;-85
2021/08/23 07:12:35;;;;;;;3.93;2.43;;;15.10;99.90;;;;;;5058285;28;20177;-86
2021/08/23 07:15:00;;;;;;;4.93;2.50;;;15.20;99.90;;;;;;5057909;28;20720;-86
2021/08/23 07:17:26;;;;;;;3.60;2.27;;;15.20;99.90;;;;;;5068488;28;20221;-86
2021/08/23 07:19:53;;;;;;;3.03;2.50;;;15.30;99.90;;;;;;5065025;28;20172;-86
2021/08/23 07:22:19;;;;;;;5.07;2.20;;;15.40;99.90;;;;;;5067074;28;20249;-87
2021/08/23 07:24:47;;;;;;;5.03;2.47;;;15.50;99.90;;;;;;5073339;28;20173;-86
2021/08/23 07:27:14;;;;;;;2.40;2.20;;;15.70;99.90;;;;;;5074600;28;20222;-86
2021/08/23 07:29:40;;;;;;;5.60;2.17;;;15.90;99.90;;;;;;5078262;28;20176;-86
2021/08/23 07:32:07;;;;;;;4.13;2.10;;;16.10;99.90;;;;;;5064041;28;20185;-86
2021/08/23 07:34:32;;;;;;;3.33;1.90;;;16.10;99.90;;;;;;5066448;28;20198;-87
2021/08/23 07:36:58;;;;;;;3.33;1.80;;;16.10;99.90;;;;;;5066781;28;20209;-87
2021/08/23 07:39:23;;;;;;;2.60;2.00;;;16.20;99.90;;;;;;5068094;28;20209;-87
2021/08/23 07:41:50;;;;;;;3.77;2.03;;;16.10;99.90;;;;;;5065100;28;20205;-86
2021/08/23 07:44:15;;;;;;;3.03;1.97;;;16.10;99.90;;;;;;5077325;28;20173;-86
2021/08/23 07:46:41;;;;;;;2.60;2.00;;;16.10;99.90;;;;;;5070274;28;20192;-86
2021/08/23 07:49:07;;;;;;;3.87;2.37;;;16.20;99.90;;;;;;5066363;28;20549;-86
2021/08/23 07:51:33;;;;;;;2.70;1.90;;;16.30;99.90;;;;;;5075628;28;20177;-86
2021/08/23 07:53:58;;;;;;;3.40;2.00;;;16.40;99.90;;;;;;5075351;28;20201;-87
2021/08/23 07:56:24;;;;;;;3.03;1.77;;;16.50;99.90;;;;;;5061827;28;20173;-86
2021/08/23 07:58:49;;;;;;;3.67;1.63;;;16.60;99.90;;;;;;5058579;28;20256;-86
2021/08/23 08:01:15;;;;;;;3.83;2.07;;;16.80;99.90;;;;;;5065994;28;20232;-86
2021/08/23 08:03:41;;;;;;;4.03;2.07;;;17.00;99.90;;;;;;5061991;28;20196;-87
2021/08/23 08:06:07;;;;;;;4.70;1.73;;;17.10;99.90;;;;;;5067175;28;20185;-87
2021/08/23 08:08:32;;;;;;;3.47;1.70;;;17.30;99.90;;;;;;5064951;28;20612;-87
2021/08/23 08:10:58;;;;;;;4.10;2.10;;;17.30;99.90;;;;;;5075662;28;20212;-87
2021/08/23 08:13:25;;;;;;;2.57;1.50;;;17.20;99.90;;;;;;5075481;28;20202;-87
2021/08/23 08:15:51;;;;;;;3.77;1.77;;;17.20;99.90;;;;;;5076373;28;20231;-87
2021/08/23 08:18:17;;;;;;;5.67;2.00;;;17.30;99.90;;;;;;5076330;28;20189;-87
2021/08/23 08:20:49;;;;;;;3.80;1.67;;;17.30;99.90;;;;;;5075909;28;20196;-87
2021/08/23 08:23:15;;;;;;;6.73;2.07;;;17.40;99.90;;;;;;5070059;28;20266;-87
2021/08/23 08:25:40;;;;;;;4.07;1.83;;;17.50;99.90;;;;;;5068082;28;20660;-86
2021/08/23 08:28:06;;;;;;;3.00;1.67;;;17.50;99.90;;;;;;5066224;28;20217;-85
2021/08/23 08:30:32;;;;;;;2.50;1.80;;;17.50;99.90;;;;;;5077016;28;20185;-85
2021/08/23 08:32:58;;;;;;;3.33;1.73;;;17.40;99.90;;;;;;5077272;28;20200;-81
2021/08/23 08:35:24;;;;;;;2.30;1.80;;;17.30;99.90;;;;;;5076886;28;20191;-84
2021/08/23 08:37:52;;;;;;;3.77;1.83;;;17.30;99.90;;;;;;5077499;28;20206;-86
2021/08/23 08:40:18;;;;;;;3.57;1.80;;;17.20;99.90;;;;;;5074857;28;20195;-87
2021/08/23 08:42:44;;;;;;;3.57;1.80;;;17.30;99.90;;;;;;5074337;28;20187;-87
2021/08/23 08:45:10;;;;;;;3.00;1.50;;;17.30;99.90;;;;;;5074206;28;20184;-87
2021/08/23 08:47:40;;;;;;;4.50;1.87;;;17.20;99.90;;;;;;5075523;28;20201;-87
2021/08/23 08:50:07;;;;;;;1.97;1.40;;;17.20;99.90;;;;;;5074664;28;20601;-86
2021/08/23 08:52:33;;;;;;;4.13;1.60;;;17.20;99.90;;;;;;5080914;28;20274;-87
2021/08/23 08:54:59;;;;;;;3.03;1.73;;;17.10;99.90;;;;;;5081648;28;20219;-84
2021/08/23 08:57:24;;;;;;;3.67;1.80;;;17.00;99.90;;;;;;5074876;28;20203;-84
2021/08/23 08:59:50;;;;;;;2.47;1.80;;;17.10;99.90;;;;;;5074598;28;20198;-85
2021/08/23 09:02:16;;;;;;;2.97;1.67;;;17.20;99.90;;;;;;5074695;28;20187;-85
2021/08/23 09:04:42;;;;;;;1.97;1.50;;;17.20;99.90;;;;;;5075764;28;20178;-86
2021/08/23 09:07:09;;;;;;;4.27;1.40;;;17.30;99.90;;;;;;5075455;28;20221;-85
2021/08/23 09:09:37;;;;;;;3.33;1.63;;;17.40;99.90;;;;;;5076861;28;20187;-85
2021/08/23 09:12:12;;;;;;;2.73;1.53;;;17.50;99.90;;;;;;5078989;28;20263;-85
2021/08/23 09:14:52;;;;;;;3.43;1.80;;;17.60;99.90;;;;;;5078525;28;20561;-85
2021/08/23 09:17:23;;;;;;;5.23;1.50;;;17.70;99.90;;;;;;5074477;28;20682;-85
2021/08/23 09:20:06;;;;;;;3.10;1.80;;;17.70;99.90;;;;;;5075332;28;20158;-85
2021/08/23 09:22:32;;;;;;;4.17;2.00;;;17.70;99.90;;;;;;5058992;28;20187;-85
2021/08/23 09:25:12;;;;;;;2.70;1.67;;;17.80;99.90;;;;;;5076442;28;20173;-85
2021/08/23 09:27:38;;;;;;;4.70;2.07;;;17.70;99.90;;;;;;5075937;28;20253;-85
2021/08/23 09:30:05;;;;;;;3.97;1.80;;;17.70;99.90;;;;;;5075204;28;20181;-85
2021/08/23 09:32:34;;;;;;;4.33;1.50;;;17.70;99.90;;;;;;5076254;28;20633;-86
2021/08/23 09:35:00;;;;;;;4.47;1.60;;;17.50;99.90;;;;;;5076346;28;20668;-85
2021/08/23 09:37:29;;;;;;;5.97;1.67;;;17.50;99.90;;;;;;5073536;28;20285;-86
2021/08/23 09:39:55;;;;;;;3.60;1.77;;;17.50;99.90;;;;;;5073331;28;20226;-85
2021/08/23 09:42:23;;;;;;;3.77;2.10;;;17.40;99.90;;;;;;5073385;28;20183;-85
2021/08/23 09:44:50;;;;;;;2.23;1.70;;;17.40;99.90;;;;;;5074688;28;20574;-85
2021/08/23 09:47:16;;;;;;;2.90;1.63;;;17.40;99.90;;;;;;5074844;28;20689;-85
2021/08/23 09:49:47;;;;;;;5.77;2.00;;;17.40;99.90;;;;;;5075196;28;20176;-86
2021/08/23 09:52:22;;;;;;;3.87;1.80;;;17.50;99.90;;;;;;5073891;28;20214;-85
2021/08/23 09:55:02;;;;;;;3.90;2.03;;;17.50;99.90;;;;;;5076382;28;20224;-85
2021/08/23 09:57:29;;;;;;;2.83;1.90;;;17.30;99.90;;;;;;5080116;28;20206;-86
2021/08/23 09:59:55;;;;;;;4.43;2.27;;;17.10;99.90;;;;;;5082488;28;20184;-86
2021/08/23 10:02:22;;;;;;;5.60;2.83;;;16.90;99.90;;;;;;5077592;28;20185;-86
2021/08/23 10:04:48;;;;;;;5.63;2.80;;;16.80;99.90;;;;;;5074149;28;20639;-86
2021/08/23 10:07:14;;;;;;;5.27;3.17;;;16.70;99.90;;;;;;5072351;28;20423;-87
2021/08/23 10:09:43;;;;;;;5.07;2.60;;;16.60;99.90;;;;;;5076626;28;20183;-86
2021/08/23 10:12:13;;;;;;;5.20;2.30;;;16.50;99.90;;;;;;5074490;28;20182;-86
2021/08/23 10:14:40;;;;;;;3.20;2.50;;;16.60;99.90;;;;;;5085772;28;20194;-86
2021/08/23 10:17:06;;;;;;;3.77;2.97;;;16.60;99.90;;;;;;5082789;28;20338;-86
2021/08/23 10:19:33;;;;;;;5.03;3.17;;;16.50;99.90;;;;;;5076256;28;20182;-86
2021/08/23 10:21:59;;;;;;;5.13;3.40;;;16.60;99.90;;;;;;5075038;28;20178;-87
2021/08/23 10:24:30;;;;;;;3.37;2.80;;;16.80;99.90;;;;;;5073459;28;20181;-85
2021/08/23 10:26:57;;;;;;;4.50;3.20;;;17.00;99.90;;;;;;5074042;28;20211;-85
2021/08/23 10:29:23;;;;;;;3.63;2.67;;;17.20;99.90;;;;;;5074718;28;20674;-85
2021/08/23 10:31:49;;;;;;;3.63;2.43;;;17.30;99.90;;;;;;5075478;28;20261;-85
2021/08/23 10:34:20;;;;;;;5.07;2.67;;;17.60;99.90;;;;;;5092358;28;20244;-85
2021/08/23 10:36:48;;;;;;;4.20;2.93;;;18.50;99.90;;;;;;5076723;28;20245;-86
2021/08/23 10:39:19;;;;;;;4.53;2.50;;;19.30;99.90;;;;;;5079786;28;20267;-85
2021/08/23 10:41:45;;;;;;;3.47;2.70;;;19.40;99.90;;;;;;5079467;28;20174;-85
2021/08/23 10:44:10;;;;;;;4.70;2.43;;;19.10;99.90;;;;;;5078609;28;20175;-86
2021/08/23 10:46:40;;;;;;;5.50;3.00;;;18.70;99.90;;;;;;5077051;28;20184;-86
2021/08/23 10:49:12;;;;;;;3.87;2.60;;;18.20;99.90;;;;;;5075721;28;20187;-87
2021/08/23 10:51:42;;;;;;;3.73;2.60;;;17.90;99.90;;;;;;5076072;28;20632;-87
2021/08/23 10:54:26;;;;;;;3.90;2.30;;;17.60;99.90;;;;;;5077027;28;20198;-87
2021/08/23 10:57:00;;;;;;;4.50;2.37;;;17.30;99.90;;;;;;5075946;28;20286;-87
2021/08/23 10:59:44;;;;;;;4.53;3.13;;;17.20;99.90;;;;;;5075884;28;20306;-87
2021/08/23 11:02:12;;;;;;;5.33;2.77;;;17.10;99.90;;;;;;5075990;28;20253;-87
2021/08/23 11:04:41;;;;;;;5.10;2.97;;;17.10;99.90;;;;;;5075539;28;20178;-86
2021/08/23 11:07:08;;;;;;;4.80;2.83;;;17.10;99.90;;;;;;5075707;28;20277;-86
2021/08/23 11:09:42;;;;;;;4.13;3.03;;;17.30;99.90;;;;;;5075960;28;20188;-86
2021/08/23 11:12:14;;;;;;;6.57;2.87;;;17.50;99.90;;;;;;5076707;28;20211;-86
2021/08/23 11:14:47;;;;;;;4.00;2.70;;;17.80;99.90;;;;;;5076435;28;20206;-86
2021/08/23 11:17:24;;;;;;;3.87;2.83;;;18.20;99.90;;;;;;5075683;28;20199;-86
2021/08/23 11:19:50;;;;;;;3.87;2.40;;;18.40;99.90;;;;;;5075763;28;20173;-86
2021/08/23 11:22:17;;;;;;;4.83;2.50;;;18.40;99.90;;;;;;5076717;28;20178;-86
2021/08/23 11:24:43;;;;;;;3.70;2.33;;;18.40;99.90;;;;;;5075488;28;20190;-86
2021/08/23 11:27:08;;;;;;;3.57;2.00;;;18.20;99.90;;;;;;5075522;28;20205;-86
2021/08/23 11:29:52;;;;;;;2.93;1.90;;;17.90;99.90;;;;;;5075207;28;20545;-86
2021/08/23 11:32:19;;;;;;;3.13;1.87;;;17.80;99.90;;;;;;5075271;28;20168;-86
2021/08/23 11:34:50;;;;;;;5.87;2.77;;;17.80;99.90;;;;;;5075426;28;20693;-86
2021/08/23 11:37:18;;;;;;;6.20;1.80;;;18.40;99.90;;;;;;5078329;28;20190;-85
2021/08/23 11:39:44;;;;;;;3.27;1.60;;;19.30;99.90;;;;;;5077627;28;20214;-86
2021/08/23 11:42:10;;;;;;;5.53;2.00;;;20.20;99.90;;;;;;5076988;28;20177;-87
2021/08/23 11:44:41;;;;;;;3.73;2.17;;;20.70;99.90;;;;;;5075615;28;20209;-87
2021/08/23 11:47:07;;;;;;;4.13;1.93;;;21.20;99.90;;;;;;5075310;28;20201;-87
2021/08/23 11:49:37;;;;;;;2.53;2.10;;;21.60;99.90;;;;;;5074852;28;20173;-87
2021/08/23 11:52:13;;;;;;;3.70;1.87;;;22.00;99.90;;;;;;5076631;28;20178;-86
2021/08/23 11:54:41;;;;;;;3.53;1.83;;;22.20;99.90;;;;;;5075431;28;20203;-86
2021/08/23 11:57:07;;;;;;;5.43;1.97;;;21.70;99.90;;;;;;5075916;28;20555;-86
2021/08/23 11:59:33;;;;;;;3.33;1.80;;;21.10;99.90;;;;;;5075570;28;20203;-86
2021/08/23 12:02:24;;;;;;;2.60;1.63;;;20.50;99.90;;;;;;5075627;28;20298;-86
2021/08/23 12:04:51;;;;;;;2.83;1.90;;;19.90;99.90;;;;;;5076371;28;20179;-86
2021/08/23 12:07:17;;;;;;;2.63;1.73;;;19.50;99.90;;;;;;5087214;28;20197;-86
2021/08/23 12:09:42;;;;;;;2.00;1.53;;;19.10;99.90;;;;;;5095381;28;20166;-86
2021/08/23 12:12:08;;;;;;;2.40;2.17;;;19.20;99.90;;;;;;5098071;28;20253;-86
2021/08/23 12:14:34;;;;;;;3.40;1.90;;;19.60;99.90;;;;;;5094834;28;20205;-86
2021/08/23 12:17:07;;;;;;;3.97;2.00;;;20.00;99.90;;;;;;5086823;28;20209;-86
2021/08/23 12:19:33;;;;;;;2.13;1.60;;;20.30;99.90;;;;;;5074522;28;20165;-87
2021/08/23 12:22:03;;;;;;;3.03;1.90;;;20.30;99.90;;;;;;5074570;28;20195;-87
2021/08/23 12:24:28;;;;;;;2.13;1.60;;;20.60;99.90;;;;;;5075112;28;20173;-88
2021/08/23 12:26:57;;;;;;;2.83;1.77;;;20.70;99.90;;;;;;5077809;28;20283;-87
2021/08/23 12:29:36;;;;;;;3.13;1.77;;;20.40;99.90;;;;;;5077410;28;20631;-87
2021/08/23 12:32:09;;;;;;;2.80;1.90;;;20.00;99.90;;;;;;5076849;28;20161;-87
2021/08/23 12:34:42;;;;;;;3.10;1.93;;;19.70;99.90;;;;;;5076695;28;20204;-87
2021/08/23 12:37:09;;;;;;;2.67;2.00;;;19.40;99.90;;;;;;5077048;28;20193;-87
2021/08/23 12:39:35;;;;;;;1.90;1.50;;;19.10;99.90;;;;;;5077115;28;20241;-88
2021/08/23 12:42:08;;;;;;;2.63;2.00;;;18.90;99.90;;;;;;5079950;28;20659;-87
2021/08/23 12:44:34;;;;;;;4.17;2.03;;;18.80;99.90;;;;;;5080552;28;20171;-87
2021/08/23 12:47:01;;;;;;;5.17;2.20;;;18.70;99.90;;;;;;5080562;28;20197;-87